sensor_id;sensor_type;location;lat;lon;timestamp;P1;durP1;ratioP1;P2;durP2;ratioP2
33690;SDS011;20026;50.058;18.428;2022-12-18T00:01:39;75.38;;;28.35;;
33690;SDS011;20026;50.058;18.428;2022-12-18T00:04:05;77.53;;;27.33;;
33690;SDS011;20026;50.058;18.428;2022-12-18T00:06:35;71.72;;;27.40;;
33690;SDS011;20026;50.058;18.428;2022-12-18T00:09:03;73.30;;;28.05;;
33690;SDS011;20026;50.058;18.428;2022-12-18T00:11:30;74.22;;;28.38;;
33690;SDS011;20026;50.058;18.428;2022-12-18T00:13:58;78.35;;;27.95;;
33690;SDS011;20026;50.058;18.428;2022-12-18T00:16:26;94.10;;;32.75;;
33690;SDS011;20026;50.058;18.428;2022-12-18T00:18:53;75.22;;;27.20;;
33690;SDS011;20026;50.058;18.428;2022-12-18T00:21:20;67.68;;;26.27;;
33690;SDS011;20026;50.058;18.428;2022-12-18T00:23:47;59.72;;;23.58;;
33690;SDS011;20026;50.058;18.428;2022-12-18T00:26:14;63.25;;;22.33;;
33690;SDS011;20026;50.058;18.428;2022-12-18T00:28:41;62.70;;;22.83;;
33690;SDS011;20026;50.058;18.428;2022-12-18T00:31:08;66.57;;;23.05;;
33690;SDS011;20026;50.058;18.428;2022-12-18T00:33:36;69.57;;;25.30;;
33690;SDS011;20026;50.058;18.428;2022-12-18T00:36:04;83.90;;;28.60;;
33690;SDS011;20026;50.058;18.428;2022-12-18T00:38:31;64.10;;;25.98;;
33690;SDS011;20026;50.058;18.428;2022-12-18T00:40:57;58.58;;;22.63;;
33690;SDS011;20026;50.058;18.428;2022-12-18T00:43:23;64.65;;;23.25;;
33690;SDS011;20026;50.058;18.428;2022-12-18T00:45:49;60.38;;;22.27;;
33690;SDS011;20026;50.058;18.428;2022-12-18T00:48:15;62.05;;;21.48;;
33690;SDS011;20026;50.058;18.428;2022-12-18T00:50:41;58.13;;;22.77;;
33690;SDS011;20026;50.058;18.428;2022-12-18T00:53:07;78.13;;;27.88;;
33690;SDS011;20026;50.058;18.428;2022-12-18T00:55:34;68.32;;;25.52;;
33690;SDS011;20026;50.058;18.428;2022-12-18T00:58:00;60.15;;;22.65;;
33690;SDS011;20026;50.058;18.428;2022-12-18T01:00:26;64.72;;;22.75;;
33690;SDS011;20026;50.058;18.428;2022-12-18T01:02:52;55.80;;;21.33;;
33690;SDS011;20026;50.058;18.428;2022-12-18T01:05:18;54.67;;;21.45;;
33690;SDS011;20026;50.058;18.428;2022-12-18T01:07:44;70.07;;;24.45;;
33690;SDS011;20026;50.058;18.428;2022-12-18T01:10:11;56.13;;;22.30;;
33690;SDS011;20026;50.058;18.428;2022-12-18T01:12:38;58.72;;;23.17;;
33690;SDS011;20026;50.058;18.428;2022-12-18T01:15:06;67.43;;;22.77;;
33690;SDS011;20026;50.058;18.428;2022-12-18T01:17:34;52.97;;;20.50;;
33690;SDS011;20026;50.058;18.428;2022-12-18T01:20:00;55.45;;;22.13;;
33690;SDS011;20026;50.058;18.428;2022-12-18T01:22:26;57.95;;;21.77;;
33690;SDS011;20026;50.058;18.428;2022-12-18T01:24:52;59.75;;;20.73;;
33690;SDS011;20026;50.058;18.428;2022-12-18T01:27:18;55.65;;;21.77;;
33690;SDS011;20026;50.058;18.428;2022-12-18T01:29:44;58.33;;;20.75;;
33690;SDS011;20026;50.058;18.428;2022-12-18T01:32:10;60.45;;;22.83;;
33690;SDS011;20026;50.058;18.428;2022-12-18T01:34:36;55.90;;;22.50;;
33690;SDS011;20026;50.058;18.428;2022-12-18T01:37:03;63.97;;;21.58;;
33690;SDS011;20026;50.058;18.428;2022-12-18T01:39:30;56.53;;;20.85;;
33690;SDS011;20026;50.058;18.428;2022-12-18T01:42:00;74.95;;;29.38;;
33690;SDS011;20026;50.058;18.428;2022-12-18T01:46:55;70.68;;;25.75;;
33690;SDS011;20026;50.058;18.428;2022-12-18T01:49:21;69.55;;;28.60;;
33690;SDS011;20026;50.058;18.428;2022-12-18T01:51:47;63.75;;;25.55;;
33690;SDS011;20026;50.058;18.428;2022-12-18T01:54:13;66.78;;;25.83;;
33690;SDS011;20026;50.058;18.428;2022-12-18T01:56:38;59.80;;;22.73;;
33690;SDS011;20026;50.058;18.428;2022-12-18T01:59:05;65.57;;;24.25;;
33690;SDS011;20026;50.058;18.428;2022-12-18T02:01:33;45.10;;;16.48;;
33690;SDS011;20026;50.058;18.428;2022-12-18T02:06:45;53.25;;;20.38;;
33690;SDS011;20026;50.058;18.428;2022-12-18T02:09:25;53.25;;;21.45;;
33690;SDS011;20026;50.058;18.428;2022-12-18T02:14:27;50.28;;;19.90;;
33690;SDS011;20026;50.058;18.428;2022-12-18T02:17:05;63.92;;;23.02;;
33690;SDS011;20026;50.058;18.428;2022-12-18T02:27:00;56.78;;;22.00;;
33690;SDS011;20026;50.058;18.428;2022-12-18T02:32:24;55.97;;;19.85;;
33690;SDS011;20026;50.058;18.428;2022-12-18T02:34:51;56.00;;;19.20;;
33690;SDS011;20026;50.058;18.428;2022-12-18T02:37:18;56.50;;;20.17;;
33690;SDS011;20026;50.058;18.428;2022-12-18T02:39:46;58.20;;;19.92;;
33690;SDS011;20026;50.058;18.428;2022-12-18T02:42:13;49.85;;;20.08;;
33690;SDS011;20026;50.058;18.428;2022-12-18T02:44:45;55.65;;;20.73;;
33690;SDS011;20026;50.058;18.428;2022-12-18T02:47:13;63.03;;;21.75;;
33690;SDS011;20026;50.058;18.428;2022-12-18T02:49:53;52.22;;;19.45;;
33690;SDS011;20026;50.058;18.428;2022-12-18T02:55:14;58.75;;;21.90;;
33690;SDS011;20026;50.058;18.428;2022-12-18T02:57:45;53.30;;;20.75;;
33690;SDS011;20026;50.058;18.428;2022-12-18T03:00:20;52.05;;;20.23;;
33690;SDS011;20026;50.058;18.428;2022-12-18T03:02:48;56.67;;;21.17;;
33690;SDS011;20026;50.058;18.428;2022-12-18T03:05:22;53.00;;;20.38;;
33690;SDS011;20026;50.058;18.428;2022-12-18T03:10:19;49.83;;;18.23;;
33690;SDS011;20026;50.058;18.428;2022-12-18T03:12:48;49.13;;;18.48;;
33690;SDS011;20026;50.058;18.428;2022-12-18T03:15:19;50.88;;;18.52;;
33690;SDS011;20026;50.058;18.428;2022-12-18T03:17:48;47.63;;;18.05;;
33690;SDS011;20026;50.058;18.428;2022-12-18T03:20:19;49.30;;;18.02;;
33690;SDS011;20026;50.058;18.428;2022-12-18T03:22:46;51.53;;;18.67;;
33690;SDS011;20026;50.058;18.428;2022-12-18T03:25:13;47.60;;;18.00;;
33690;SDS011;20026;50.058;18.428;2022-12-18T03:27:42;47.05;;;17.23;;
33690;SDS011;20026;50.058;18.428;2022-12-18T03:30:09;49.28;;;17.77;;
33690;SDS011;20026;50.058;18.428;2022-12-18T03:32:53;44.17;;;17.52;;
33690;SDS011;20026;50.058;18.428;2022-12-18T03:35:24;41.80;;;16.20;;
33690;SDS011;20026;50.058;18.428;2022-12-18T03:37:52;36.85;;;15.52;;
33690;SDS011;20026;50.058;18.428;2022-12-18T03:40:19;42.83;;;16.80;;
33690;SDS011;20026;50.058;18.428;2022-12-18T03:42:48;48.58;;;18.75;;
33690;SDS011;20026;50.058;18.428;2022-12-18T03:45:22;66.20;;;22.80;;
33690;SDS011;20026;50.058;18.428;2022-12-18T03:53:02;52.53;;;18.70;;
33690;SDS011;20026;50.058;18.428;2022-12-18T03:55:30;47.30;;;18.42;;
33690;SDS011;20026;50.058;18.428;2022-12-18T03:57:58;51.50;;;19.73;;
33690;SDS011;20026;50.058;18.428;2022-12-18T04:00:25;48.97;;;21.05;;
33690;SDS011;20026;50.058;18.428;2022-12-18T04:02:51;56.13;;;20.77;;
33690;SDS011;20026;50.058;18.428;2022-12-18T04:05:19;51.80;;;19.70;;
33690;SDS011;20026;50.058;18.428;2022-12-18T04:07:45;47.97;;;20.40;;
33690;SDS011;20026;50.058;18.428;2022-12-18T04:10:12;54.75;;;20.52;;
33690;SDS011;20026;50.058;18.428;2022-12-18T04:12:39;58.45;;;21.95;;
33690;SDS011;20026;50.058;18.428;2022-12-18T04:15:06;49.08;;;18.95;;
33690;SDS011;20026;50.058;18.428;2022-12-18T04:17:32;48.80;;;18.63;;
33690;SDS011;20026;50.058;18.428;2022-12-18T04:19:58;51.13;;;20.00;;
33690;SDS011;20026;50.058;18.428;2022-12-18T04:22:24;55.55;;;22.42;;
33690;SDS011;20026;50.058;18.428;2022-12-18T04:24:50;57.00;;;21.27;;
33690;SDS011;20026;50.058;18.428;2022-12-18T04:27:16;53.22;;;20.92;;
33690;SDS011;20026;50.058;18.428;2022-12-18T04:29:42;64.85;;;23.20;;
33690;SDS011;20026;50.058;18.428;2022-12-18T04:32:08;62.40;;;24.00;;
33690;SDS011;20026;50.058;18.428;2022-12-18T04:34:34;72.57;;;27.33;;
33690;SDS011;20026;50.058;18.428;2022-12-18T04:37:00;72.50;;;26.10;;
33690;SDS011;20026;50.058;18.428;2022-12-18T04:39:26;67.43;;;23.70;;
33690;SDS011;20026;50.058;18.428;2022-12-18T04:41:52;60.80;;;21.48;;
33690;SDS011;20026;50.058;18.428;2022-12-18T04:44:18;54.47;;;20.83;;
33690;SDS011;20026;50.058;18.428;2022-12-18T04:46:44;50.15;;;19.38;;
33690;SDS011;20026;50.058;18.428;2022-12-18T04:49:10;45.38;;;19.73;;
33690;SDS011;20026;50.058;18.428;2022-12-18T04:51:37;45.60;;;18.92;;
33690;SDS011;20026;50.058;18.428;2022-12-18T04:54:03;52.15;;;22.05;;
33690;SDS011;20026;50.058;18.428;2022-12-18T04:56:30;50.67;;;19.20;;
33690;SDS011;20026;50.058;18.428;2022-12-18T04:58:56;50.53;;;19.27;;
33690;SDS011;20026;50.058;18.428;2022-12-18T05:01:22;50.92;;;20.50;;
33690;SDS011;20026;50.058;18.428;2022-12-18T05:03:48;50.90;;;19.08;;
33690;SDS011;20026;50.058;18.428;2022-12-18T05:06:14;47.55;;;19.13;;
33690;SDS011;20026;50.058;18.428;2022-12-18T05:08:40;49.28;;;19.88;;
33690;SDS011;20026;50.058;18.428;2022-12-18T05:11:07;47.50;;;19.10;;
33690;SDS011;20026;50.058;18.428;2022-12-18T05:13:34;52.65;;;19.98;;
33690;SDS011;20026;50.058;18.428;2022-12-18T05:16:01;46.42;;;18.73;;
33690;SDS011;20026;50.058;18.428;2022-12-18T05:18:28;44.28;;;17.08;;
33690;SDS011;20026;50.058;18.428;2022-12-18T05:20:54;44.63;;;17.45;;
33690;SDS011;20026;50.058;18.428;2022-12-18T05:23:21;47.88;;;17.98;;
33690;SDS011;20026;50.058;18.428;2022-12-18T05:25:50;49.60;;;18.50;;
33690;SDS011;20026;50.058;18.428;2022-12-18T05:28:16;39.35;;;15.57;;
33690;SDS011;20026;50.058;18.428;2022-12-18T05:30:46;50.28;;;21.85;;
33690;SDS011;20026;50.058;18.428;2022-12-18T05:33:12;56.88;;;23.65;;
33690;SDS011;20026;50.058;18.428;2022-12-18T05:35:38;64.97;;;25.75;;
33690;SDS011;20026;50.058;18.428;2022-12-18T05:38:04;52.42;;;23.30;;
33690;SDS011;20026;50.058;18.428;2022-12-18T05:40:30;64.28;;;26.05;;
33690;SDS011;20026;50.058;18.428;2022-12-18T05:42:56;60.15;;;22.27;;
33690;SDS011;20026;50.058;18.428;2022-12-18T05:45:22;59.67;;;21.77;;
33690;SDS011;20026;50.058;18.428;2022-12-18T05:47:48;58.20;;;20.88;;
33690;SDS011;20026;50.058;18.428;2022-12-18T05:50:14;57.30;;;22.40;;
33690;SDS011;20026;50.058;18.428;2022-12-18T05:52:40;56.25;;;22.05;;
33690;SDS011;20026;50.058;18.428;2022-12-18T05:55:07;56.53;;;22.50;;
33690;SDS011;20026;50.058;18.428;2022-12-18T05:57:33;63.67;;;22.83;;
33690;SDS011;20026;50.058;18.428;2022-12-18T05:59:59;59.30;;;22.77;;
33690;SDS011;20026;50.058;18.428;2022-12-18T06:02:25;59.22;;;24.33;;
33690;SDS011;20026;50.058;18.428;2022-12-18T06:04:51;58.05;;;21.73;;
33690;SDS011;20026;50.058;18.428;2022-12-18T06:07:17;118.60;;;40.58;;
33690;SDS011;20026;50.058;18.428;2022-12-18T06:09:43;184.75;;;61.72;;
33690;SDS011;20026;50.058;18.428;2022-12-18T06:12:09;223.57;;;77.57;;
33690;SDS011;20026;50.058;18.428;2022-12-18T06:14:35;165.07;;;65.82;;
33690;SDS011;20026;50.058;18.428;2022-12-18T06:17:01;128.70;;;56.60;;
33690;SDS011;20026;50.058;18.428;2022-12-18T06:19:27;73.72;;;32.60;;
33690;SDS011;20026;50.058;18.428;2022-12-18T06:21:53;62.13;;;27.20;;
33690;SDS011;20026;50.058;18.428;2022-12-18T06:24:19;70.60;;;26.95;;
33690;SDS011;20026;50.058;18.428;2022-12-18T06:26:45;69.78;;;24.88;;
33690;SDS011;20026;50.058;18.428;2022-12-18T06:29:11;80.38;;;29.08;;
33690;SDS011;20026;50.058;18.428;2022-12-18T06:31:37;82.95;;;27.58;;
33690;SDS011;20026;50.058;18.428;2022-12-18T06:34:03;78.32;;;28.60;;
33690;SDS011;20026;50.058;18.428;2022-12-18T06:36:29;133.43;;;48.22;;
33690;SDS011;20026;50.058;18.428;2022-12-18T06:38:56;236.38;;;89.80;;
33690;SDS011;20026;50.058;18.428;2022-12-18T06:41:23;181.15;;;74.60;;
33690;SDS011;20026;50.058;18.428;2022-12-18T06:43:49;132.65;;;46.70;;
33690;SDS011;20026;50.058;18.428;2022-12-18T06:46:15;82.90;;;31.92;;
33690;SDS011;20026;50.058;18.428;2022-12-18T06:48:41;74.97;;;30.15;;
33690;SDS011;20026;50.058;18.428;2022-12-18T06:51:07;156.43;;;57.50;;
33690;SDS011;20026;50.058;18.428;2022-12-18T06:53:33;199.00;;;63.78;;
33690;SDS011;20026;50.058;18.428;2022-12-18T06:56:00;92.65;;;38.05;;
33690;SDS011;20026;50.058;18.428;2022-12-18T06:58:28;78.38;;;32.67;;
33690;SDS011;20026;50.058;18.428;2022-12-18T07:01:04;87.10;;;34.63;;
33690;SDS011;20026;50.058;18.428;2022-12-18T07:03:34;181.20;;;65.65;;
33690;SDS011;20026;50.058;18.428;2022-12-18T07:06:01;114.05;;;46.78;;
33690;SDS011;20026;50.058;18.428;2022-12-18T07:08:29;161.48;;;55.75;;
33690;SDS011;20026;50.058;18.428;2022-12-18T07:10:57;117.00;;;41.88;;
33690;SDS011;20026;50.058;18.428;2022-12-18T07:13:24;88.45;;;36.22;;
33690;SDS011;20026;50.058;18.428;2022-12-18T07:15:51;137.57;;;55.35;;
33690;SDS011;20026;50.058;18.428;2022-12-18T07:18:17;122.68;;;47.78;;
33690;SDS011;20026;50.058;18.428;2022-12-18T07:20:44;97.65;;;39.40;;
33690;SDS011;20026;50.058;18.428;2022-12-18T07:23:11;121.65;;;50.20;;
33690;SDS011;20026;50.058;18.428;2022-12-18T07:25:38;127.65;;;51.25;;
33690;SDS011;20026;50.058;18.428;2022-12-18T07:28:06;100.95;;;39.95;;
33690;SDS011;20026;50.058;18.428;2022-12-18T07:30:32;90.28;;;37.08;;
33690;SDS011;20026;50.058;18.428;2022-12-18T07:32:59;84.35;;;35.55;;
33690;SDS011;20026;50.058;18.428;2022-12-18T07:35:26;118.97;;;44.45;;
33690;SDS011;20026;50.058;18.428;2022-12-18T07:37:52;148.88;;;55.97;;
33690;SDS011;20026;50.058;18.428;2022-12-18T07:40:18;176.68;;;66.07;;
33690;SDS011;20026;50.058;18.428;2022-12-18T07:42:45;123.13;;;46.75;;
33690;SDS011;20026;50.058;18.428;2022-12-18T07:45:11;110.30;;;40.17;;
33690;SDS011;20026;50.058;18.428;2022-12-18T07:47:37;159.68;;;55.20;;
33690;SDS011;20026;50.058;18.428;2022-12-18T07:50:08;188.55;;;68.75;;
33690;SDS011;20026;50.058;18.428;2022-12-18T07:52:34;113.65;;;42.35;;
33690;SDS011;20026;50.058;18.428;2022-12-18T07:55:02;129.77;;;45.85;;
33690;SDS011;20026;50.058;18.428;2022-12-18T07:57:29;203.13;;;71.57;;
33690;SDS011;20026;50.058;18.428;2022-12-18T07:59:56;99.57;;;38.92;;
33690;SDS011;20026;50.058;18.428;2022-12-18T08:02:25;156.48;;;77.32;;
33690;SDS011;20026;50.058;18.428;2022-12-18T08:04:51;84.77;;;34.43;;
33690;SDS011;20026;50.058;18.428;2022-12-18T08:07:19;157.15;;;60.70;;
33690;SDS011;20026;50.058;18.428;2022-12-18T08:09:46;178.05;;;68.93;;
33690;SDS011;20026;50.058;18.428;2022-12-18T08:12:12;179.02;;;78.82;;
33690;SDS011;20026;50.058;18.428;2022-12-18T08:14:38;284.70;;;102.47;;
33690;SDS011;20026;50.058;18.428;2022-12-18T08:17:06;346.92;;;127.13;;
33690;SDS011;20026;50.058;18.428;2022-12-18T08:19:32;162.90;;;70.07;;
33690;SDS011;20026;50.058;18.428;2022-12-18T08:21:58;123.28;;;49.80;;
33690;SDS011;20026;50.058;18.428;2022-12-18T08:24:25;133.57;;;55.58;;
33690;SDS011;20026;50.058;18.428;2022-12-18T08:26:53;102.57;;;41.58;;
33690;SDS011;20026;50.058;18.428;2022-12-18T08:29:22;68.28;;;28.80;;
33690;SDS011;20026;50.058;18.428;2022-12-18T08:31:49;130.18;;;48.80;;
33690;SDS011;20026;50.058;18.428;2022-12-18T08:34:15;170.32;;;65.68;;
33690;SDS011;20026;50.058;18.428;2022-12-18T08:36:41;105.10;;;40.40;;
33690;SDS011;20026;50.058;18.428;2022-12-18T08:39:09;101.93;;;36.38;;
33690;SDS011;20026;50.058;18.428;2022-12-18T08:41:35;99.35;;;35.05;;
33690;SDS011;20026;50.058;18.428;2022-12-18T08:44:01;114.93;;;39.33;;
33690;SDS011;20026;50.058;18.428;2022-12-18T08:46:46;84.72;;;30.38;;
33690;SDS011;20026;50.058;18.428;2022-12-18T08:49:13;85.72;;;32.15;;
33690;SDS011;20026;50.058;18.428;2022-12-18T08:51:41;87.43;;;33.25;;
33690;SDS011;20026;50.058;18.428;2022-12-18T08:54:09;110.63;;;38.08;;
33690;SDS011;20026;50.058;18.428;2022-12-18T08:56:38;80.70;;;30.35;;
33690;SDS011;20026;50.058;18.428;2022-12-18T08:59:05;117.38;;;42.83;;
33690;SDS011;20026;50.058;18.428;2022-12-18T09:01:31;104.72;;;37.35;;
33690;SDS011;20026;50.058;18.428;2022-12-18T09:03:58;210.48;;;73.88;;
33690;SDS011;20026;50.058;18.428;2022-12-18T09:06:24;82.07;;;32.28;;
33690;SDS011;20026;50.058;18.428;2022-12-18T09:08:51;79.18;;;30.88;;
33690;SDS011;20026;50.058;18.428;2022-12-18T09:11:21;134.48;;;47.60;;
33690;SDS011;20026;50.058;18.428;2022-12-18T09:13:48;107.47;;;38.63;;
33690;SDS011;20026;50.058;18.428;2022-12-18T09:16:15;224.82;;;76.28;;
33690;SDS011;20026;50.058;18.428;2022-12-18T09:18:41;120.75;;;44.58;;
33690;SDS011;20026;50.058;18.428;2022-12-18T09:21:18;136.60;;;47.05;;
33690;SDS011;20026;50.058;18.428;2022-12-18T09:23:49;160.98;;;54.92;;
33690;SDS011;20026;50.058;18.428;2022-12-18T09:26:17;149.95;;;53.72;;
33690;SDS011;20026;50.058;18.428;2022-12-18T09:28:43;116.60;;;48.67;;
33690;SDS011;20026;50.058;18.428;2022-12-18T09:31:11;100.18;;;42.80;;
33690;SDS011;20026;50.058;18.428;2022-12-18T09:33:37;84.57;;;31.13;;
33690;SDS011;20026;50.058;18.428;2022-12-18T09:36:06;112.25;;;42.85;;
33690;SDS011;20026;50.058;18.428;2022-12-18T09:38:34;104.03;;;36.03;;
33690;SDS011;20026;50.058;18.428;2022-12-18T09:43:39;124.82;;;52.70;;
33690;SDS011;20026;50.058;18.428;2022-12-18T09:46:09;104.18;;;39.70;;
33690;SDS011;20026;50.058;18.428;2022-12-18T09:48:40;226.85;;;88.50;;
33690;SDS011;20026;50.058;18.428;2022-12-18T09:51:17;116.80;;;44.50;;
33690;SDS011;20026;50.058;18.428;2022-12-18T09:53:47;83.97;;;33.85;;
33690;SDS011;20026;50.058;18.428;2022-12-18T09:56:17;245.52;;;70.68;;
33690;SDS011;20026;50.058;18.428;2022-12-18T09:59:14;641.05;;;169.88;;
33690;SDS011;20026;50.058;18.428;2022-12-18T10:01:36;189.23;;;68.80;;
33690;SDS011;20026;50.058;18.428;2022-12-18T10:04:05;124.13;;;44.67;;
33690;SDS011;20026;50.058;18.428;2022-12-18T10:06:36;462.95;;;106.72;;
33690;SDS011;20026;50.058;18.428;2022-12-18T10:09:10;599.35;;;143.82;;
33690;SDS011;20026;50.058;18.428;2022-12-18T10:11:49;202.48;;;62.33;;
33690;SDS011;20026;50.058;18.428;2022-12-18T10:14:35;400.55;;;98.25;;
33690;SDS011;20026;50.058;18.428;2022-12-18T10:22:43;230.73;;;118.22;;
33690;SDS011;20026;50.058;18.428;2022-12-18T10:25:22;213.32;;;66.45;;
33690;SDS011;20026;50.058;18.428;2022-12-18T10:27:51;272.00;;;69.03;;
33690;SDS011;20026;50.058;18.428;2022-12-18T10:30:20;153.70;;;42.90;;
33690;SDS011;20026;50.058;18.428;2022-12-18T10:32:48;231.10;;;56.70;;
33690;SDS011;20026;50.058;18.428;2022-12-18T10:35:19;551.13;;;130.88;;
33690;SDS011;20026;50.058;18.428;2022-12-18T10:40:32;309.92;;;78.65;;
33690;SDS011;20026;50.058;18.428;2022-12-18T10:43:14;345.20;;;92.07;;
33690;SDS011;20026;50.058;18.428;2022-12-18T10:45:41;151.85;;;50.08;;
33690;SDS011;20026;50.058;18.428;2022-12-18T10:48:20;120.22;;;40.42;;
33690;SDS011;20026;50.058;18.428;2022-12-18T10:50:49;116.93;;;40.60;;
33690;SDS011;20026;50.058;18.428;2022-12-18T10:53:23;90.05;;;32.60;;
33690;SDS011;20026;50.058;18.428;2022-12-18T10:55:52;131.88;;;45.58;;
33690;SDS011;20026;50.058;18.428;2022-12-18T10:58:23;253.95;;;79.90;;
33690;SDS011;20026;50.058;18.428;2022-12-18T11:01:01;121.90;;;41.53;;
33690;SDS011;20026;50.058;18.428;2022-12-18T11:03:32;181.10;;;57.50;;
33690;SDS011;20026;50.058;18.428;2022-12-18T11:06:10;148.13;;;48.30;;
33690;SDS011;20026;50.058;18.428;2022-12-18T11:08:37;237.73;;;74.65;;
33690;SDS011;20026;50.058;18.428;2022-12-18T11:11:04;135.75;;;45.97;;
33690;SDS011;20026;50.058;18.428;2022-12-18T11:13:32;164.43;;;56.38;;
33690;SDS011;20026;50.058;18.428;2022-12-18T11:15:58;201.57;;;60.75;;
33690;SDS011;20026;50.058;18.428;2022-12-18T11:18:26;138.45;;;46.50;;
33690;SDS011;20026;50.058;18.428;2022-12-18T11:20:54;130.88;;;46.25;;
33690;SDS011;20026;50.058;18.428;2022-12-18T11:23:22;184.95;;;64.63;;
33690;SDS011;20026;50.058;18.428;2022-12-18T11:25:59;186.38;;;62.85;;
33690;SDS011;20026;50.058;18.428;2022-12-18T11:28:26;152.27;;;51.70;;
33690;SDS011;20026;50.058;18.428;2022-12-18T11:33:39;131.18;;;43.30;;
33690;SDS011;20026;50.058;18.428;2022-12-18T11:36:07;176.57;;;57.55;;
33690;SDS011;20026;50.058;18.428;2022-12-18T11:38:35;157.57;;;59.47;;
33690;SDS011;20026;50.058;18.428;2022-12-18T11:41:04;112.00;;;40.05;;
33690;SDS011;20026;50.058;18.428;2022-12-18T11:43:38;235.13;;;76.10;;
33690;SDS011;20026;50.058;18.428;2022-12-18T11:48:34;89.20;;;35.53;;
33690;SDS011;20026;50.058;18.428;2022-12-18T11:51:04;104.70;;;36.95;;
33690;SDS011;20026;50.058;18.428;2022-12-18T11:53:31;114.65;;;43.70;;
33690;SDS011;20026;50.058;18.428;2022-12-18T12:01:06;121.72;;;44.78;;
33690;SDS011;20026;50.058;18.428;2022-12-18T12:08:57;169.60;;;58.33;;
33690;SDS011;20026;50.058;18.428;2022-12-18T12:11:42;152.57;;;57.55;;
33690;SDS011;20026;50.058;18.428;2022-12-18T12:16:53;112.88;;;40.85;;
33690;SDS011;20026;50.058;18.428;2022-12-18T12:19:25;127.10;;;44.67;;
33690;SDS011;20026;50.058;18.428;2022-12-18T12:21:58;138.65;;;47.53;;
33690;SDS011;20026;50.058;18.428;2022-12-18T12:27:03;176.30;;;55.50;;
33690;SDS011;20026;50.058;18.428;2022-12-18T12:40:02;537.05;;;153.55;;
33690;SDS011;20026;50.058;18.428;2022-12-18T12:42:31;695.83;;;161.75;;
33690;SDS011;20026;50.058;18.428;2022-12-18T12:45:20;651.35;;;139.95;;
33690;SDS011;20026;50.058;18.428;2022-12-18T12:47:48;161.20;;;45.97;;
33690;SDS011;20026;50.058;18.428;2022-12-18T12:50:16;117.70;;;34.97;;
33690;SDS011;20026;50.058;18.428;2022-12-18T12:52:49;246.82;;;59.03;;
33690;SDS011;20026;50.058;18.428;2022-12-18T12:55:20;728.72;;;166.63;;
33690;SDS011;20026;50.058;18.428;2022-12-18T12:58:04;264.08;;;71.78;;
33690;SDS011;20026;50.058;18.428;2022-12-18T13:03:29;135.27;;;44.38;;
33690;SDS011;20026;50.058;18.428;2022-12-18T13:06:02;144.70;;;45.42;;
33690;SDS011;20026;50.058;18.428;2022-12-18T13:08:32;163.50;;;51.20;;
33690;SDS011;20026;50.058;18.428;2022-12-18T13:10:58;777.97;;;207.60;;
33690;SDS011;20026;50.058;18.428;2022-12-18T13:13:53;116.65;;;37.92;;
33690;SDS011;20026;50.058;18.428;2022-12-18T13:16:20;360.77;;;87.22;;
33690;SDS011;20026;50.058;18.428;2022-12-18T13:18:54;374.00;;;93.05;;
33690;SDS011;20026;50.058;18.428;2022-12-18T13:21:29;261.73;;;71.65;;
33690;SDS011;20026;50.058;18.428;2022-12-18T13:23:56;662.00;;;177.07;;
33690;SDS011;20026;50.058;18.428;2022-12-18T13:26:40;80.22;;;30.50;;
33690;SDS011;20026;50.058;18.428;2022-12-18T13:29:06;409.85;;;99.53;;
33690;SDS011;20026;50.058;18.428;2022-12-18T13:34:17;161.80;;;59.22;;
33690;SDS011;20026;50.058;18.428;2022-12-18T13:36:44;208.48;;;60.28;;
33690;SDS011;20026;50.058;18.428;2022-12-18T13:41:43;148.00;;;47.95;;
33690;SDS011;20026;50.058;18.428;2022-12-18T13:44:10;138.80;;;41.88;;
33690;SDS011;20026;50.058;18.428;2022-12-18T13:51:35;86.30;;;30.90;;
33690;SDS011;20026;50.058;18.428;2022-12-18T13:54:06;75.30;;;26.75;;
33690;SDS011;20026;50.058;18.428;2022-12-18T13:56:42;237.43;;;72.53;;
33690;SDS011;20026;50.058;18.428;2022-12-18T14:01:45;200.85;;;61.15;;
33690;SDS011;20026;50.058;18.428;2022-12-18T14:04:16;210.70;;;62.25;;
33690;SDS011;20026;50.058;18.428;2022-12-18T14:06:43;235.40;;;66.68;;
33690;SDS011;20026;50.058;18.428;2022-12-18T14:09:12;260.77;;;78.93;;
33690;SDS011;20026;50.058;18.428;2022-12-18T14:11:39;198.57;;;62.08;;
33690;SDS011;20026;50.058;18.428;2022-12-18T14:14:05;224.23;;;70.72;;
33690;SDS011;20026;50.058;18.428;2022-12-18T14:16:32;213.48;;;70.45;;
33690;SDS011;20026;50.058;18.428;2022-12-18T14:19:00;282.90;;;86.63;;
33690;SDS011;20026;50.058;18.428;2022-12-18T14:21:26;299.95;;;89.70;;
33690;SDS011;20026;50.058;18.428;2022-12-18T14:24:11;371.63;;;105.57;;
33690;SDS011;20026;50.058;18.428;2022-12-18T14:26:38;482.25;;;147.20;;
33690;SDS011;20026;50.058;18.428;2022-12-18T14:29:18;469.95;;;151.57;;
33690;SDS011;20026;50.058;18.428;2022-12-18T14:31:44;350.77;;;109.57;;
33690;SDS011;20026;50.058;18.428;2022-12-18T14:34:17;375.48;;;113.57;;
33690;SDS011;20026;50.058;18.428;2022-12-18T14:36:53;347.67;;;110.25;;
33690;SDS011;20026;50.058;18.428;2022-12-18T14:39:22;407.98;;;119.63;;
33690;SDS011;20026;50.058;18.428;2022-12-18T14:41:51;344.92;;;104.03;;
33690;SDS011;20026;50.058;18.428;2022-12-18T14:44:18;271.13;;;86.05;;
33690;SDS011;20026;50.058;18.428;2022-12-18T14:46:47;331.05;;;102.85;;
33690;SDS011;20026;50.058;18.428;2022-12-18T14:51:47;383.83;;;128.55;;
33690;SDS011;20026;50.058;18.428;2022-12-18T14:54:17;277.80;;;103.78;;
33690;SDS011;20026;50.058;18.428;2022-12-18T14:56:47;259.13;;;93.28;;
33690;SDS011;20026;50.058;18.428;2022-12-18T14:59:20;239.57;;;88.32;;
33690;SDS011;20026;50.058;18.428;2022-12-18T15:04:24;372.63;;;125.20;;
33690;SDS011;20026;50.058;18.428;2022-12-18T15:07:02;393.75;;;133.10;;
33690;SDS011;20026;50.058;18.428;2022-12-18T15:09:29;382.55;;;133.07;;
33690;SDS011;20026;50.058;18.428;2022-12-18T15:11:57;425.75;;;145.55;;
33690;SDS011;20026;50.058;18.428;2022-12-18T15:14:29;443.58;;;147.90;;
33690;SDS011;20026;50.058;18.428;2022-12-18T15:16:57;422.48;;;140.30;;
33690;SDS011;20026;50.058;18.428;2022-12-18T15:19:26;387.75;;;126.65;;
33690;SDS011;20026;50.058;18.428;2022-12-18T15:21:54;368.58;;;123.72;;
33690;SDS011;20026;50.058;18.428;2022-12-18T15:24:23;364.65;;;121.60;;
33690;SDS011;20026;50.058;18.428;2022-12-18T15:26:50;390.25;;;124.18;;
33690;SDS011;20026;50.058;18.428;2022-12-18T15:29:20;364.27;;;126.55;;
33690;SDS011;20026;50.058;18.428;2022-12-18T15:32:03;406.80;;;131.80;;
33690;SDS011;20026;50.058;18.428;2022-12-18T15:34:30;432.92;;;143.25;;
33690;SDS011;20026;50.058;18.428;2022-12-18T15:36:57;445.00;;;146.80;;
33690;SDS011;20026;50.058;18.428;2022-12-18T15:39:23;450.15;;;152.43;;
33690;SDS011;20026;50.058;18.428;2022-12-18T15:41:49;441.38;;;146.70;;